Time;durP1;ratioP1;P1;durP2;ratioP2;P2;SDS_P1;SDS_P2;PMS_P1;PMS_P2;Temp;Humidity;BMP_temperature;BMP_pressure;BME280_temperature;BME280_humidity;BME280_pressure;Samples;Min_cycle;Max_cycle;Signal;HPM_P1;HPM_P2
2023/06/18 00:01:52;;;;;;;13.90;9.27;;;;;;;21.87;39.39;97221.38;5095777;28;20196;-69
2023/06/18 00:04:18;;;;;;;11.77;9.90;;;;;;;21.90;39.63;97217.44;5087454;28;20213;-69
2023/06/18 00:06:43;;;;;;;16.73;9.70;;;;;;;21.94;39.62;97219.44;5086184;28;20281;-68
2023/06/18 00:09:08;;;;;;;11.30;8.50;;;;;;;21.98;39.28;97224.34;5087463;28;20339;-67
2023/06/18 00:11:34;;;;;;;12.10;9.30;;;;;;;21.98;39.41;97219.00;5091260;28;20190;-69
2023/06/18 00:13:59;;;;;;;9.90;8.80;;;;;;;21.90;39.38;97212.94;5095524;28;20326;-69
2023/06/18 00:16:25;;;;;;;21.87;9.37;;;;;;;21.83;39.35;97220.19;5091644;28;20803;-69
2023/06/18 00:18:50;;;;;;;13.17;9.30;;;;;;;21.73;39.60;97219.91;5090695;28;20255;-68
2023/06/18 00:21:16;;;;;;;13.70;9.50;;;;;;;21.76;39.53;97211.47;5094120;28;20898;-69
2023/06/18 00:23:41;;;;;;;11.23;8.80;;;;;;;21.74;39.54;97214.34;5099322;28;20842;-69
2023/06/18 00:26:07;;;;;;;14.27;9.30;;;;;;;21.74;39.72;97216.22;5091329;28;20746;-69
2023/06/18 00:28:32;;;;;;;10.77;9.37;;;;;;;21.73;39.82;97217.25;5091136;28;20759;-68
2023/06/18 00:30:58;;;;;;;10.30;9.07;;;;;;;21.61;39.78;97210.00;5090726;28;20255;-68
2023/06/18 00:33:24;;;;;;;11.40;9.30;;;;;;;21.58;39.81;97207.75;5097714;28;20185;-69
2023/06/18 00:35:56;;;;;;;20.03;9.67;;;;;;;21.53;40.28;97212.94;5092895;28;20666;-69
2023/06/18 00:38:28;;;;;;;11.50;9.03;;;;;;;21.54;40.22;97214.59;5090827;28;20442;-69
2023/06/18 00:40:54;;;;;;;17.90;8.47;;;;;;;21.45;40.32;97205.22;5095300;28;20807;-69
2023/06/18 00:43:19;;;;;;;15.33;9.63;;;;;;;21.46;39.95;97204.19;5085050;28;20463;-69
2023/06/18 00:45:46;;;;;;;16.33;8.40;;;;;;;21.47;40.17;97198.66;5090158;28;20189;-69
2023/06/18 00:48:13;;;;;;;14.30;9.50;;;;;;;21.48;40.02;97204.78;5091096;28;20212;-69
2023/06/18 00:50:40;;;;;;;12.10;9.60;;;;;;;21.45;40.06;97195.41;5072432;28;20442;-69
2023/06/18 00:53:07;;;;;;;11.93;9.40;;;;;;;21.36;40.41;97203.91;5084657;28;20451;-69
2023/06/18 00:55:37;;;;;;;15.03;9.80;;;;;;;21.26;40.38;97209.75;5092227;28;20477;-68
2023/06/18 00:58:03;;;;;;;14.40;9.10;;;;;;;21.27;40.41;97204.22;5098794;28;20451;-68
2023/06/18 01:00:33;;;;;;;35.17;10.17;;;;;;;21.24;40.70;97199.31;5072408;28;20431;-69
2023/06/18 01:03:04;;;;;;;15.10;9.40;;;;;;;21.28;40.43;97210.34;5090470;28;20459;-68
2023/06/18 01:05:31;;;;;;;16.23;9.50;;;;;;;21.27;40.78;97200.72;5096566;28;20431;-68
2023/06/18 01:07:59;;;;;;;19.67;10.17;;;;;;;21.29;40.49;97202.13;5072110;28;20485;-68
2023/06/18 01:10:28;;;;;;;12.03;9.70;;;;;;;21.25;40.56;97213.44;5058386;28;20455;-68
2023/06/18 01:12:55;;;;;;;14.80;8.50;;;;;;;21.32;40.73;97200.88;5090367;28;20412;-69
2023/06/18 01:15:21;;;;;;;18.60;8.93;;;;;;;21.37;40.36;97201.00;5090241;28;20416;-68
2023/06/18 01:17:48;;;;;;;14.23;10.70;;;;;;;21.21;40.71;97197.09;5079999;28;21030;-68
2023/06/18 01:20:15;;;;;;;11.93;9.50;;;;;;;21.10;41.28;97203.13;5093622;28;20238;-69
2023/06/18 01:22:57;;;;;;;14.60;10.30;;;;;;;21.09;41.25;97197.00;5070941;28;20432;-68
2023/06/18 01:25:25;;;;;;;13.97;9.60;;;;;;;21.19;40.91;97201.81;5090182;28;20440;-69
2023/06/18 01:27:53;;;;;;;14.90;9.40;;;;;;;21.16;40.44;97199.59;5089895;28;20466;-69
2023/06/18 01:30:20;;;;;;;11.67;8.97;;;;;;;21.16;40.58;97202.28;5072897;28;20436;-70
2023/06/18 01:32:46;;;;;;;14.80;9.27;;;;;;;21.15;40.72;97200.63;5093097;28;20916;-69
2023/06/18 01:35:15;;;;;;;14.03;8.00;;;;;;;21.11;40.72;97197.59;5097751;28;20420;-70
2023/06/18 01:38:01;;;;;;;12.33;9.70;;;;;;;21.04;41.11;97193.38;5089315;28;20217;-68
2023/06/18 01:40:48;;;;;;;9.70;8.70;;;;;;;21.03;40.86;97195.22;5092465;28;20489;-69
2023/06/18 01:43:27;;;;;;;9.93;8.93;;;;;;;20.94;41.21;97194.66;5087919;28;20550;-69
2023/06/18 01:45:54;;;;;;;14.67;9.27;;;;;;;20.97;41.38;97199.56;5067839;28;20428;-69
2023/06/18 01:48:21;;;;;;;11.97;9.70;;;;;;;20.98;41.33;97198.53;5089588;28;20820;-69
2023/06/18 01:50:47;;;;;;;13.60;8.50;;;;;;;20.95;41.48;97200.84;5060641;28;20914;-68
2023/06/18 01:53:15;;;;;;;12.73;9.00;;;;;;;20.96;40.97;97191.81;5071569;28;20507;-69
2023/06/18 01:55:44;;;;;;;13.33;8.83;;;;;;;20.91;40.99;97195.13;5088930;28;20250;-69
2023/06/18 01:58:11;;;;;;;11.90;8.10;;;;;;;20.88;41.44;97195.56;5071839;28;20466;-68
2023/06/18 02:00:36;;;;;;;12.80;9.80;;;;;;;20.82;41.55;97191.09;5089465;28;20427;-68
2023/06/18 02:03:02;;;;;;;13.10;8.90;;;;;;;20.78;41.41;97196.06;5088949;28;21054;-68
2023/06/18 02:05:27;;;;;;;11.13;8.70;;;;;;;20.71;41.09;97196.06;5089779;28;20198;-68
2023/06/18 02:07:53;;;;;;;11.37;8.77;;;;;;;20.70;41.27;97210.41;5088101;28;20292;-68
2023/06/18 02:10:18;;;;;;;10.20;8.37;;;;;;;20.72;41.41;97199.56;5093373;28;20207;-69
2023/06/18 02:12:44;;;;;;;10.50;8.80;;;;;;;20.74;41.12;97197.47;5089015;28;20192;-68
2023/06/18 02:15:09;;;;;;;12.37;9.63;;;;;;;20.70;41.38;97201.63;5089082;28;20272;-68
2023/06/18 02:17:35;;;;;;;9.17;8.13;;;;;;;20.71;41.12;97198.72;5089131;28;20866;-68
2023/06/18 02:20:00;;;;;;;9.50;8.50;;;;;;;20.60;40.64;97199.44;5094227;28;20784;-67
2023/06/18 02:22:26;;;;;;;15.37;9.40;;;;;;;20.63;40.66;97191.03;5094287;28;20240;-69
2023/06/18 02:24:52;;;;;;;13.30;8.63;;;;;;;20.67;40.27;97189.53;5088464;28;20210;-68
2023/06/18 02:27:18;;;;;;;10.57;9.50;;;;;;;20.68;40.67;97190.38;5089343;28;20201;-69
2023/06/18 02:29:44;;;;;;;15.00;9.80;;;;;;;20.62;40.83;97196.56;5097058;28;20426;-68
2023/06/18 02:32:09;;;;;;;11.30;8.43;;;;;;;20.60;41.48;97195.97;5097073;28;20193;-68
2023/06/18 02:34:35;;;;;;;11.97;9.13;;;;;;;20.53;41.38;97196.03;5088255;28;20588;-68
2023/06/18 02:37:01;;;;;;;10.90;8.20;;;;;;;20.49;41.25;97198.28;5088160;28;20209;-68
2023/06/18 02:39:26;;;;;;;9.93;8.47;;;;;;;20.53;41.06;97201.34;5071482;28;20181;-69
2023/06/18 02:41:52;;;;;;;13.67;8.27;;;;;;;20.46;40.82;97198.75;5084958;28;20283;-68
2023/06/18 02:44:18;;;;;;;14.03;9.33;;;;;;;20.47;40.65;97196.88;5089004;28;20213;-68
2023/06/18 02:46:43;;;;;;;9.33;8.43;;;;;;;20.51;40.92;97190.09;5098407;28;20280;-67
2023/06/18 02:49:08;;;;;;;14.70;8.70;;;;;;;20.46;40.78;97185.44;5088717;28;20201;-68
2023/06/18 02:51:34;;;;;;;9.40;8.27;;;;;;;20.50;40.75;97197.25;5087882;28;20281;-68
2023/06/18 02:54:00;;;;;;;12.03;9.30;;;;;;;20.51;40.67;97195.44;5096920;28;20198;-68
2023/06/18 02:56:28;;;;;;;11.73;8.93;;;;;;;20.52;41.13;97191.72;5085880;28;20181;-68
2023/06/18 02:58:56;;;;;;;8.57;7.77;;;;;;;20.49;41.56;97189.50;5085816;28;20455;-68
2023/06/18 03:01:23;;;;;;;10.07;8.23;;;;;;;20.51;41.64;97195.44;5088872;28;20428;-69
2023/06/18 03:03:49;;;;;;;10.57;9.37;;;;;;;20.49;41.70;97192.97;5095890;28;20458;-68
2023/06/18 03:06:14;;;;;;;9.00;8.10;;;;;;;20.49;41.93;97195.63;5088488;28;20811;-68
2023/06/18 03:08:40;;;;;;;11.60;9.03;;;;;;;20.52;41.67;97195.19;5087991;28;20454;-68
2023/06/18 03:11:05;;;;;;;10.13;8.20;;;;;;;20.48;42.04;97198.50;5091087;28;20288;-67
2023/06/18 03:13:31;;;;;;;11.00;8.53;;;;;;;20.48;42.11;97201.19;5088621;28;20260;-68
2023/06/18 03:15:56;;;;;;;11.63;8.70;;;;;;;20.33;42.30;97198.84;5087133;28;20217;-68
2023/06/18 03:18:23;;;;;;;10.13;8.80;;;;;;;20.29;42.38;97197.63;5088051;28;20205;-68
2023/06/18 03:20:48;;;;;;;13.50;9.20;;;;;;;20.29;42.38;97205.59;5093701;28;20182;-68
2023/06/18 03:23:14;;;;;;;11.40;8.83;;;;;;;20.22;42.51;97209.13;5083167;28;20855;-68
2023/06/18 03:25:40;;;;;;;9.10;8.20;;;;;;;20.22;42.54;97203.81;5080523;28;20243;-68
2023/06/18 03:28:05;;;;;;;10.53;8.77;;;;;;;20.21;42.38;97206.66;5086755;28;20652;-68
2023/06/18 03:30:31;;;;;;;10.30;8.17;;;;;;;20.13;42.54;97204.28;5089400;28;20190;-68
2023/06/18 03:32:58;;;;;;;9.10;8.20;;;;;;;20.13;42.93;97210.41;5087820;28;20209;-69
2023/06/18 03:35:24;;;;;;;9.00;8.10;;;;;;;20.16;43.12;97215.28;5086660;28;20224;-68
2023/06/18 03:37:50;;;;;;;13.40;9.03;;;;;;;20.15;42.73;97212.88;5085295;28;20870;-68
2023/06/18 03:40:15;;;;;;;14.60;8.60;;;;;;;20.17;42.93;97210.78;5083394;28;20830;-69
2023/06/18 03:42:41;;;;;;;11.33;8.57;;;;;;;20.15;42.80;97208.34;5087189;28;20182;-69
2023/06/18 03:45:06;;;;;;;10.63;7.73;;;;;;;20.20;42.71;97207.69;5094262;28;20624;-68
2023/06/18 03:47:32;;;;;;;10.63;8.40;;;;;;;20.10;43.20;97210.81;5093037;28;20282;-68
2023/06/18 03:49:57;;;;;;;11.43;9.47;;;;;;;20.06;43.09;97217.59;5092464;28;20181;-67
2023/06/18 03:52:23;;;;;;;11.40;9.10;;;;;;;19.94;43.40;97212.13;5075658;28;20220;-68
2023/06/18 03:54:48;;;;;;;12.13;9.23;;;;;;;19.93;43.50;97215.81;5096645;28;20177;-68
2023/06/18 03:57:14;;;;;;;10.37;9.30;;;;;;;19.97;42.63;97218.91;5089830;28;20267;-68
2023/06/18 03:59:39;;;;;;;9.60;8.60;;;;;;;20.03;42.85;97210.88;5095448;28;20197;-69
2023/06/18 04:02:05;;;;;;;11.00;9.33;;;;;;;20.10;42.80;97210.81;5075637;28;20277;-68
2023/06/18 04:04:30;;;;;;;9.50;8.50;;;;;;;20.08;43.35;97213.69;5075224;28;20262;-68
2023/06/18 04:06:56;;;;;;;11.03;9.27;;;;;;;20.13;43.42;97214.91;5092881;28;20189;-69
2023/06/18 04:09:21;;;;;;;10.10;8.53;;;;;;;20.13;42.83;97217.56;5099338;28;20197;-68
2023/06/18 04:11:47;;;;;;;10.83;9.60;;;;;;;20.15;43.01;97210.19;5095728;28;20193;-68
2023/06/18 04:14:13;;;;;;;10.33;8.73;;;;;;;20.18;42.96;97207.09;5094052;28;20261;-68
2023/06/18 04:16:38;;;;;;;11.53;9.67;;;;;;;20.22;42.84;97214.47;5096908;28;20511;-68
2023/06/18 04:19:04;;;;;;;10.00;8.83;;;;;;;20.30;42.61;97217.88;5101448;27;20733;-67
2023/06/18 04:21:29;;;;;;;10.90;9.37;;;;;;;20.35;42.49;97218.06;5096103;28;20277;-68
2023/06/18 04:23:55;;;;;;;9.60;8.70;;;;;;;20.39;42.34;97213.91;5102160;28;20645;-68
2023/06/18 04:26:21;;;;;;;10.30;8.67;;;;;;;20.44;42.55;97208.78;5093672;28;20194;-68
2023/06/18 04:28:46;;;;;;;10.47;8.43;;;;;;;20.47;43.23;97220.84;5092797;28;20621;-68
2023/06/18 04:31:12;;;;;;;10.43;8.70;;;;;;;20.42;42.62;97214.31;5075769;28;20432;-69
2023/06/18 04:33:37;;;;;;;9.60;8.40;;;;;;;20.48;42.88;97211.81;5093757;28;20265;-68
2023/06/18 04:36:03;;;;;;;9.33;8.10;;;;;;;20.52;43.15;97203.19;5093875;28;20205;-68
2023/06/18 04:38:28;;;;;;;9.93;8.90;;;;;;;20.57;43.81;97207.84;5075206;28;20292;-69
2023/06/18 04:40:54;;;;;;;12.83;9.00;;;;;;;20.66;43.93;97203.91;5080352;28;20702;-68
2023/06/18 04:43:19;;;;;;;13.63;10.00;;;;;;;20.75;43.85;97207.13;5095895;28;20642;-68
2023/06/18 04:45:46;;;;;;;10.27;8.30;;;;;;;20.79;44.26;97204.88;5097980;28;20572;-68
2023/06/18 04:48:12;;;;;;;13.57;9.30;;;;;;;20.83;44.26;97201.56;5101938;28;20671;-68
2023/06/18 04:50:38;;;;;;;12.40;9.57;;;;;;;20.87;44.45;97199.25;5101623;28;20434;-68
2023/06/18 04:53:04;;;;;;;9.63;8.50;;;;;;;20.91;44.26;97203.13;5094400;28;20458;-68
2023/06/18 04:55:29;;;;;;;12.10;9.00;;;;;;;20.96;44.67;97207.78;5095960;28;20448;-68
2023/06/18 04:57:55;;;;;;;10.13;8.97;;;;;;;20.97;44.06;97206.75;5064288;28;20721;-68
2023/06/18 05:00:22;;;;;;;11.90;8.70;;;;;;;20.98;43.93;97203.88;5095614;28;20193;-69
2023/06/18 05:02:47;;;;;;;11.40;8.80;;;;;;;21.00;43.79;97203.63;5089860;28;20488;-68
2023/06/18 05:05:13;;;;;;;10.40;8.93;;;;;;;21.05;44.09;97197.66;5090228;28;20444;-69
2023/06/18 05:07:38;;;;;;;9.00;8.10;;;;;;;21.12;44.30;97203.75;5090418;28;20668;-69
2023/06/18 05:10:04;;;;;;;9.37;8.40;;;;;;;21.18;44.19;97206.34;5100501;28;20786;-68
2023/06/18 05:12:29;;;;;;;9.80;8.80;;;;;;;21.23;44.43;97204.88;5092963;28;20193;-69
2023/06/18 05:14:55;;;;;;;10.53;9.20;;;;;;;21.26;44.07;97197.25;5055383;28;20189;-68
2023/06/18 05:17:20;;;;;;;9.90;8.53;;;;;;;21.32;44.28;97196.34;5100512;28;20209;-68
2023/06/18 05:19:46;;;;;;;10.37;8.97;;;;;;;21.36;43.64;97191.38;5093133;28;20302;-68
2023/06/18 05:22:11;;;;;;;9.40;8.50;;;;;;;21.42;42.97;97193.16;5093643;28;20595;-68
2023/06/18 05:24:37;;;;;;;9.93;8.73;;;;;;;21.47;41.84;97193.34;5091976;28;20215;-69
2023/06/18 05:27:03;;;;;;;9.63;8.20;;;;;;;21.54;41.58;97195.09;5094140;28;20185;-68
2023/06/18 05:29:29;;;;;;;8.33;7.53;;;;;;;21.62;40.50;97194.81;5095934;28;20693;-68
2023/06/18 05:31:54;;;;;;;9.80;8.80;;;;;;;21.73;40.02;97196.75;5088835;28;20283;-68
2023/06/18 05:34:20;;;;;;;11.27;8.00;;;;;;;21.83;39.27;97211.41;5095958;28;20185;-69
2023/06/18 05:36:45;;;;;;;9.93;7.57;;;;;;;21.91;39.73;97203.06;5092873;28;20185;-67
2023/06/18 05:39:11;;;;;;;9.10;8.20;;;;;;;22.04;39.55;97199.44;5089797;28;20233;-68
2023/06/18 05:41:36;;;;;;;11.40;8.20;;;;;;;22.12;39.22;97204.44;5075005;28;20182;-68
2023/06/18 05:44:02;;;;;;;9.63;8.00;;;;;;;22.24;39.38;97202.63;5089419;28;20221;-68
2023/06/18 05:46:28;;;;;;;13.07;8.20;;;;;;;22.25;39.35;97204.25;5095077;28;20279;-68
2023/06/18 05:48:53;;;;;;;10.20;8.20;;;;;;;22.36;39.26;97207.19;5094799;28;20209;-68
2023/06/18 05:51:19;;;;;;;9.13;8.17;;;;;;;22.48;39.15;97210.72;5094575;28;20457;-69
2023/06/18 05:53:44;;;;;;;13.23;7.60;;;;;;;22.63;39.11;97214.81;5075098;28;20189;-69
2023/06/18 05:56:10;;;;;;;7.83;7.00;;;;;;;22.76;39.04;97208.44;5088373;28;20629;-68
2023/06/18 05:58:36;;;;;;;9.43;8.27;;;;;;;22.88;38.59;97208.47;5088654;28;20217;-68
2023/06/18 06:01:01;;;;;;;9.30;8.40;;;;;;;23.02;38.49;97209.88;5089206;28;20193;-68
2023/06/18 06:03:27;;;;;;;10.07;8.17;;;;;;;23.15;38.62;97206.97;5095536;28;20232;-69
2023/06/18 06:05:52;;;;;;;11.23;7.83;;;;;;;23.23;38.21;97208.50;5094047;28;20190;-69
2023/06/18 06:08:18;;;;;;;13.90;7.90;;;;;;;23.40;38.20;97210.44;5089898;28;20707;-68
2023/06/18 06:10:43;;;;;;;8.00;7.30;;;;;;;23.57;38.29;97205.16;5090666;28;20230;-69
2023/06/18 06:13:09;;;;;;;10.07;7.37;;;;;;;23.72;38.26;97208.16;5088555;28;20235;-68
2023/06/18 06:15:34;;;;;;;9.93;8.03;;;;;;;23.90;38.19;97211.72;5089018;28;20678;-68
2023/06/18 06:18:01;;;;;;;10.60;7.87;;;;;;;24.05;38.15;97209.38;5089370;28;20213;-69
2023/06/18 06:20:26;;;;;;;11.30;8.57;;;;;;;24.21;37.41;97209.63;5094994;28;20255;-69
2023/06/18 06:22:52;;;;;;;8.20;7.30;;;;;;;24.34;37.54;97206.66;5088528;28;20432;-68
2023/06/18 06:25:17;;;;;;;8.40;7.60;;;;;;;24.48;37.69;97204.50;5088600;28;20238;-68
2023/06/18 06:27:43;;;;;;;7.93;7.13;;;;;;;24.64;37.00;97197.53;5088897;28;20244;-68
2023/06/18 06:30:09;;;;;;;12.20;7.27;;;;;;;24.77;37.36;97206.31;5088268;28;20580;-69
2023/06/18 06:32:35;;;;;;;11.83;7.43;;;;;;;24.86;36.50;97188.75;5094023;28;20189;-69
2023/06/18 06:35:04;;;;;;;14.30;8.17;;;;;;;24.97;36.01;97193.22;5087768;28;20424;-69
2023/06/18 06:37:30;;;;;;;9.23;7.20;;;;;;;25.04;35.27;97198.41;5093469;28;20444;-69
2023/06/18 06:39:56;;;;;;;9.10;7.17;;;;;;;25.21;36.17;97198.38;5089423;28;20428;-69
2023/06/18 06:42:22;;;;;;;12.50;8.00;;;;;;;25.37;35.88;97198.59;5082054;28;20883;-69
2023/06/18 06:44:47;;;;;;;8.13;7.33;;;;;;;25.54;34.89;97202.06;5087960;28;20210;-68
2023/06/18 06:47:13;;;;;;;8.90;7.93;;;;;;;25.72;34.76;97203.63;5092313;28;20212;-68
2023/06/18 06:49:38;;;;;;;8.50;7.70;;;;;;;25.85;33.97;97204.31;5102939;28;20200;-68
2023/06/18 06:52:03;;;;;;;9.77;7.30;;;;;;;26.02;34.20;97209.59;5097585;28;20657;-68
2023/06/18 06:54:29;;;;;;;8.10;6.53;;;;;;;26.14;32.90;97201.44;5094346;28;20181;-66
2023/06/18 06:56:54;;;;;;;7.73;6.93;;;;;;;26.28;32.31;97202.63;5090909;28;20193;-68
2023/06/18 06:59:20;;;;;;;8.73;6.97;;;;;;;26.42;32.09;97199.50;5087951;28;20187;-69
2023/06/18 07:01:45;;;;;;;7.87;6.93;;;;;;;26.59;32.05;97199.41;5092789;28;20217;-69
2023/06/18 07:04:11;;;;;;;10.00;6.97;;;;;;;26.73;31.38;97205.16;5096953;28;20209;-68
2023/06/18 07:06:38;;;;;;;10.57;6.80;;;;;;;26.87;30.97;97205.53;5092169;28;20186;-68
2023/06/18 07:09:05;;;;;;;7.27;6.57;;;;;;;27.03;30.72;97204.59;5095874;28;20876;-68
2023/06/18 07:11:31;;;;;;;11.50;6.83;;;;;;;27.17;30.90;97204.13;5088739;28;20427;-69
2023/06/18 07:13:57;;;;;;;7.20;6.50;;;;;;;27.30;29.86;97209.06;5096226;28;20428;-69
2023/06/18 07:16:22;;;;;;;12.33;7.30;;;;;;;27.40;29.30;97214.50;5090693;28;20423;-70
2023/06/18 07:18:48;;;;;;;7.90;7.10;;;;;;;27.49;29.12;97214.00;5092595;28;20299;-68
2023/06/18 07:21:13;;;;;;;8.57;6.23;;;;;;;27.59;28.84;97214.09;5081421;28;20262;-69
2023/06/18 07:23:39;;;;;;;7.00;6.40;;;;;;;27.66;28.71;97216.53;5089279;28;20304;-69
2023/06/18 07:26:04;;;;;;;6.90;6.20;;;;;;;27.80;29.02;97216.84;5086841;28;20193;-69
2023/06/18 07:28:30;;;;;;;8.20;6.90;;;;;;;27.84;28.51;97217.94;5072180;28;20259;-69
2023/06/18 07:30:55;;;;;;;7.77;6.23;;;;;;;27.94;28.55;97223.34;5087933;28;20268;-68
2023/06/18 07:33:21;;;;;;;8.17;6.90;;;;;;;28.04;28.54;97207.22;5096563;28;20646;-69
2023/06/18 07:35:46;;;;;;;8.83;7.23;;;;;;;28.14;28.33;97208.34;5091520;28;20454;-68
2023/06/18 07:38:12;;;;;;;7.40;6.70;;;;;;;28.29;28.35;97213.78;5099159;28;20295;-69
2023/06/18 07:40:38;;;;;;;9.80;6.80;;;;;;;28.27;27.43;97215.91;5089359;28;20186;-68
2023/06/18 07:43:04;;;;;;;8.03;6.80;;;;;;;28.41;27.11;97218.09;5087583;28;20194;-68
2023/06/18 07:45:29;;;;;;;14.47;6.97;;;;;;;28.35;27.17;97207.28;5087407;28;20439;-68
2023/06/18 07:47:55;;;;;;;10.47;7.87;;;;;;;28.51;27.55;97210.84;5087441;28;20512;-67
2023/06/18 07:50:21;;;;;;;7.10;6.40;;;;;;;28.70;27.77;97202.19;5087777;28;20193;-68
2023/06/18 07:52:46;;;;;;;8.53;6.53;;;;;;;28.86;27.28;97208.41;5073591;28;20185;-70
2023/06/18 07:55:12;;;;;;;10.10;6.73;;;;;;;28.96;26.70;97205.72;5089403;28;20422;-69
2023/06/18 07:57:38;;;;;;;9.77;7.30;;;;;;;29.14;26.78;97200.81;5097552;28;20205;-69
2023/06/18 08:00:04;;;;;;;7.43;6.17;;;;;;;29.21;26.41;97201.34;5087136;28;20198;-69
2023/06/18 08:02:30;;;;;;;7.90;6.93;;;;;;;29.39;26.55;97205.38;5094208;28;20954;-69
2023/06/18 08:04:55;;;;;;;7.27;6.67;;;;;;;29.51;25.95;97199.66;5076057;28;20459;-68
2023/06/18 08:07:21;;;;;;;6.53;5.93;;;;;;;29.55;25.84;97199.94;5093796;28;20205;-68
2023/06/18 08:09:46;;;;;;;9.63;6.27;;;;;;;29.47;25.03;97195.91;5091374;28;20196;-69
2023/06/18 08:12:12;;;;;;;6.53;5.93;;;;;;;29.69;25.24;97200.13;5090801;28;20187;-69
2023/06/18 08:14:37;;;;;;;6.90;6.30;;;;;;;29.83;25.42;97195.75;5091855;28;20562;-68
2023/06/18 08:17:03;;;;;;;8.50;6.40;;;;;;;29.96;24.75;97197.06;5086911;28;20296;-69
2023/06/18 08:19:29;;;;;;;7.63;6.30;;;;;;;30.15;25.52;97196.41;5094103;28;20227;-69
2023/06/18 08:21:54;;;;;;;8.57;6.60;;;;;;;30.30;25.23;97198.19;5069037;28;20217;-69
2023/06/18 08:24:19;;;;;;;7.20;6.50;;;;;;;30.52;24.97;97195.06;5088596;28;20210;-69
2023/06/18 08:26:45;;;;;;;7.13;5.80;;;;;;;30.67;24.19;97196.06;5087317;28;20185;-69
2023/06/18 08:29:10;;;;;;;7.13;6.40;;;;;;;30.83;24.24;97199.44;5087061;28;20398;-69
2023/06/18 08:31:40;;;;;;;7.77;6.00;;;;;;;30.95;23.76;97194.47;5088538;28;20185;-69
2023/06/18 08:34:06;;;;;;;8.20;6.50;;;;;;;31.09;23.68;97190.00;5102897;28;20185;-68
2023/06/18 08:36:32;;;;;;;6.20;5.60;;;;;;;31.22;23.15;97187.72;5095958;28;20436;-69
2023/06/18 08:38:57;;;;;;;12.13;6.20;;;;;;;31.35;23.27;97184.34;5090550;28;20818;-70
2023/06/18 08:41:23;;;;;;;8.00;6.10;;;;;;;31.46;22.71;97195.03;5091836;28;20342;-69
2023/06/18 08:43:48;;;;;;;6.90;6.20;;;;;;;31.37;22.81;97181.31;5091153;28;20204;-69
2023/06/18 08:46:16;;;;;;;11.37;6.20;;;;;;;31.46;23.09;97187.69;5074293;28;20546;-69
2023/06/18 08:48:59;;;;;;;6.10;5.50;;;;;;;31.46;22.54;97181.50;5094347;28;20247;-68
2023/06/18 08:51:24;;;;;;;8.40;6.17;;;;;;;31.56;22.74;97186.78;5089047;28;20458;-68
2023/06/18 08:54:26;;;;;;;7.07;5.97;;;;;;;31.71;22.74;97194.75;5094232;28;20458;-68
2023/06/18 08:56:55;;;;;;;6.57;5.97;;;;;;;31.85;22.08;97180.50;5047777;28;20285;-69
2023/06/18 08:59:21;;;;;;;6.20;5.60;;;;;;;31.96;22.39;97184.66;5073034;28;20447;-68
2023/06/18 09:01:46;;;;;;;6.67;6.07;;;;;;;32.05;22.09;97184.00;5075119;28;20489;-68
2023/06/18 09:04:13;;;;;;;6.07;5.57;;;;;;;32.09;20.94;97191.25;5100960;28;20629;-68
2023/06/18 09:06:39;;;;;;;6.30;5.70;;;;;;;32.18;21.32;97180.56;5091902;28;20511;-67
2023/06/18 09:09:05;;;;;;;5.77;5.27;;;;;;;32.31;20.78;97187.97;5098289;28;20465;-68
2023/06/18 09:11:31;;;;;;;7.80;5.33;;;;;;;32.47;20.72;97185.03;5075446;28;20436;-68
2023/06/18 09:13:57;;;;;;;7.37;5.30;;;;;;;32.58;20.31;97182.94;5090139;28;20208;-68
2023/06/18 09:16:22;;;;;;;9.00;5.73;;;;;;;32.72;19.81;97178.34;5071378;28;20889;-67
2023/06/18 09:18:48;;;;;;;7.90;5.80;;;;;;;32.85;20.16;97176.00;5095297;28;20208;-67
2023/06/18 09:21:34;;;;;;;7.43;5.50;;;;;;;32.92;20.02;97179.94;5093485;28;20756;-68
2023/06/18 09:24:00;;;;;;;5.60;5.13;;;;;;;32.96;19.80;97168.50;5088843;28;20224;-68
2023/06/18 09:26:26;;;;;;;14.97;5.60;;;;;;;32.87;19.76;97174.63;5089801;28;20428;-67
2023/06/18 09:28:54;;;;;;;7.20;5.10;;;;;;;33.05;20.22;97166.69;5089321;28;20206;-68
2023/06/18 09:31:26;;;;;;;6.03;4.87;;;;;;;33.11;19.42;97165.50;5090963;28;20505;-68
2023/06/18 09:33:53;;;;;;;6.47;5.60;;;;;;;33.30;19.87;97167.31;5080446;28;20527;-67
2023/06/18 09:36:18;;;;;;;7.93;5.50;;;;;;;33.39;19.84;97165.53;5102723;28;20913;-69
2023/06/18 09:38:44;;;;;;;8.83;5.50;;;;;;;33.59;20.47;97158.06;5089914;28;20757;-68
2023/06/18 09:41:14;;;;;;;6.07;5.47;;;;;;;33.72;19.68;97153.69;5091539;28;20204;-68
2023/06/18 09:43:41;;;;;;;5.93;5.43;;;;;;;33.70;18.38;97154.00;5089148;28;20259;-68
2023/06/18 09:46:07;;;;;;;6.00;5.17;;;;;;;33.83;19.74;97152.38;5092964;28;20524;-67
2023/06/18 09:48:36;;;;;;;6.43;4.93;;;;;;;33.88;18.82;97151.50;5105309;28;20992;-68
2023/06/18 09:51:03;;;;;;;5.77;5.00;;;;;;;33.91;18.54;97154.41;5089381;28;20943;-68
2023/06/18 09:53:29;;;;;;;6.57;4.57;;;;;;;34.08;19.38;97158.38;5089288;28;20416;-69
2023/06/18 09:56:07;;;;;;;10.90;5.30;;;;;;;34.18;18.63;97151.88;5088505;28;20446;-68
2023/06/18 09:58:43;;;;;;;9.40;5.40;;;;;;;34.35;18.53;97145.75;5089325;28;20212;-68
2023/06/18 10:01:09;;;;;;;7.33;5.77;;;;;;;34.44;18.67;97154.84;5096852;28;20532;-68
2023/06/18 10:03:35;;;;;;;5.17;4.77;;;;;;;34.54;18.41;97149.13;5102805;28;20494;-68
2023/06/18 10:06:11;;;;;;;5.33;4.90;;;;;;;34.73;18.29;97151.66;5094751;28;20197;-68
2023/06/18 10:08:38;;;;;;;8.00;5.17;;;;;;;34.85;18.37;97148.31;5090821;28;20443;-68
2023/06/18 10:11:06;;;;;;;8.10;5.07;;;;;;;34.92;18.08;97156.06;5096725;28;20424;-68
2023/06/18 10:13:32;;;;;;;8.80;5.03;;;;;;;34.60;17.44;97147.09;5058684;28;20434;-69
2023/06/18 10:15:59;;;;;;;9.30;4.90;;;;;;;34.41;18.47;97145.34;5094534;28;20453;-68
2023/06/18 10:18:25;;;;;;;5.73;4.80;;;;;;;34.40;18.34;97141.06;5095389;28;20205;-68
2023/06/18 10:20:57;;;;;;;6.07;5.47;;;;;;;34.34;18.23;97136.03;5084825;28;20977;-69
2023/06/18 10:23:24;;;;;;;6.10;4.70;;;;;;;34.44;18.22;97138.53;5073573;28;20478;-68
2023/06/18 10:25:50;;;;;;;5.10;4.70;;;;;;;34.66;17.98;97132.22;5071779;28;20492;-68
2023/06/18 10:28:16;;;;;;;6.23;5.50;;;;;;;34.59;17.96;97140.03;5090313;28;21002;-68
2023/06/18 10:30:41;;;;;;;5.10;4.60;;;;;;;34.75;18.85;97141.25;5095610;28;20462;-68
2023/06/18 10:33:07;;;;;;;5.77;5.27;;;;;;;34.90;18.01;97131.88;5079880;28;20197;-67
2023/06/18 10:35:32;;;;;;;8.83;5.57;;;;;;;34.91;17.89;97130.75;5104775;28;20228;-68
2023/06/18 10:37:58;;;;;;;13.10;5.20;;;;;;;35.05;18.50;97136.13;5081719;28;20307;-67
2023/06/18 10:40:23;;;;;;;5.97;5.47;;;;;;;34.99;17.64;97136.56;5072416;28;20191;-69
2023/06/18 10:42:49;;;;;;;5.20;4.70;;;;;;;35.08;17.85;97137.44;5087947;28;20718;-68
2023/06/18 10:45:16;;;;;;;6.23;4.93;;;;;;;35.10;17.90;97137.09;5092245;28;20221;-68
2023/06/18 10:47:42;;;;;;;9.40;5.07;;;;;;;35.18;17.63;97133.59;5089099;28;20818;-68
2023/06/18 10:50:07;;;;;;;6.30;5.43;;;;;;;35.24;17.30;97121.47;5091621;28;20463;-69
2023/06/18 10:52:33;;;;;;;5.60;4.80;;;;;;;35.39;18.10;97124.84;5089179;28;20504;-70
2023/06/18 10:55:09;;;;;;;5.03;4.63;;;;;;;35.46;17.26;97122.50;5088260;28;20220;-69
2023/06/18 10:57:40;;;;;;;5.90;5.37;;;;;;;35.36;16.94;97118.09;5089068;28;20446;-69
2023/06/18 11:00:21;;;;;;;5.90;5.00;;;;;;;35.34;17.19;97117.66;5087992;28;20443;-69
2023/06/18 11:02:50;;;;;;;5.97;5.37;;;;;;;35.16;17.02;97119.53;5098065;28;20441;-69
2023/06/18 11:05:36;;;;;;;6.53;5.00;;;;;;;35.06;17.52;97115.16;5093525;28;20504;-69
2023/06/18 11:08:04;;;;;;;6.70;4.87;;;;;;;34.88;17.43;97103.38;5070803;28;20554;-68
2023/06/18 11:10:33;;;;;;;5.87;5.10;;;;;;;35.00;17.34;97105.50;5090288;28;21236;-69
2023/06/18 11:13:02;;;;;;;5.83;5.30;;;;;;;35.16;17.52;97103.19;5088109;28;20454;-68
2023/06/18 11:15:27;;;;;;;5.97;4.87;;;;;;;35.24;17.13;97094.22;5088307;28;21128;-68
2023/06/18 11:17:54;;;;;;;5.43;4.93;;;;;;;35.43;17.56;97098.59;5088164;28;20443;-68
2023/06/18 11:20:20;;;;;;;6.00;4.70;;;;;;;35.58;17.54;97098.16;5092375;28;20542;-69
2023/06/18 11:22:47;;;;;;;5.13;4.60;;;;;;;35.57;16.46;97107.44;5088736;28;20817;-69
2023/06/18 11:25:13;;;;;;;5.13;4.73;;;;;;;35.54;16.47;97099.91;5087087;28;20456;-69
2023/06/18 11:27:40;;;;;;;5.20;4.80;;;;;;;35.47;16.98;97096.84;5087999;28;20451;-69